createdAt,value
2023-03-26T00:00:54.285Z,1.60
2023-03-26T00:03:24.379Z,1.30
2023-03-26T00:06:03.324Z,1.40
2023-03-26T00:08:31.504Z,1.50
2023-03-26T00:11:01.032Z,1.35
2023-03-26T00:13:29.258Z,1.30
2023-03-26T00:15:57.299Z,1.52
2023-03-26T00:18:30.577Z,1.95
2023-03-26T00:20:58.813Z,1.42
2023-03-26T00:23:26.939Z,1.70
2023-03-26T00:25:56.170Z,2.03
2023-03-26T00:28:24.874Z,1.75
2023-03-26T00:30:59.536Z,2.13
2023-03-26T00:33:29.425Z,1.40
2023-03-26T00:35:59.116Z,1.33
2023-03-26T00:38:28.553Z,1.58
2023-03-26T00:41:05.789Z,2.10
2023-03-26T00:43:35.456Z,1.67
2023-03-26T00:46:03.495Z,1.90
2023-03-26T00:48:44.532Z,1.50
2023-03-26T00:51:16.309Z,1.52
2023-03-26T00:53:45.311Z,1.77
2023-03-26T00:56:14.073Z,1.75
2023-03-26T00:58:42.378Z,1.75
2023-03-26T01:01:14.598Z,1.80
2023-03-26T01:03:57.145Z,1.92
2023-03-26T01:06:36.665Z,1.80
2023-03-26T01:09:13.326Z,1.80
2023-03-26T01:11:41.388Z,1.70
2023-03-26T01:14:12.297Z,1.98
2023-03-26T01:16:44.889Z,1.50
2023-03-26T01:19:20.627Z,1.83
2023-03-26T01:21:48.516Z,2.05
2023-03-26T01:24:17.798Z,1.90
2023-03-26T01:26:59.312Z,2.10
2023-03-26T01:29:34.293Z,1.52
2023-03-26T01:32:12.855Z,1.80
2023-03-26T01:34:52.640Z,1.70
2023-03-26T01:37:30.445Z,1.92
2023-03-26T01:40:07.269Z,2.42
2023-03-26T01:42:41.591Z,3.15
2023-03-26T01:45:14.500Z,3.20
2023-03-26T01:50:12.179Z,1.85
2023-03-26T01:52:40.418Z,2.00
2023-03-26T01:55:11.747Z,1.80
2023-03-26T01:57:51.733Z,1.70
2023-03-26T02:00:26.429Z,2.05
2023-03-26T02:03:03.395Z,2.00
2023-03-26T02:05:35.166Z,1.67
2023-03-26T02:08:09.630Z,1.90
2023-03-26T02:10:44.043Z,1.67
2023-03-26T02:13:12.561Z,1.60
2023-03-26T02:15:40.561Z,2.10
2023-03-26T02:18:10.972Z,2.20
2023-03-26T02:20:38.835Z,1.83
2023-03-26T02:23:07.151Z,1.70
2023-03-26T02:25:36.737Z,1.73
2023-03-26T02:28:06.332Z,1.90
2023-03-26T02:30:34.562Z,1.90
2023-03-26T02:33:02.620Z,1.95
2023-03-26T02:35:40.185Z,1.83
2023-03-26T02:38:10.522Z,2.20
2023-03-26T02:40:38.420Z,1.80
2023-03-26T02:43:07.712Z,1.83
2023-03-26T02:45:36.687Z,1.70
2023-03-26T02:48:34.601Z,1.70
2023-03-26T02:51:11.775Z,1.80
2023-03-26T02:53:47.443Z,1.50
2023-03-26T02:56:38.172Z,1.60
2023-03-26T02:59:30.284Z,1.63
2023-03-26T03:02:19.374Z,1.50
2023-03-26T03:04:48.022Z,1.67
2023-03-26T03:07:15.973Z,2.17
2023-03-26T03:09:43.776Z,1.70
2023-03-26T03:12:41.045Z,1.67
2023-03-26T03:15:11.240Z,1.45
2023-03-26T03:17:39.105Z,1.63
2023-03-26T03:20:09.287Z,1.48
2023-03-26T03:22:39.208Z,1.40
2023-03-26T03:25:09.128Z,1.80
2023-03-26T03:27:39.339Z,2.30
2023-03-26T03:30:15.213Z,1.45
2023-03-26T03:32:45.919Z,1.92
2023-03-26T03:35:17.003Z,1.33
2023-03-26T03:37:49.954Z,1.33
2023-03-26T03:40:18.030Z,1.10
2023-03-26T03:42:46.345Z,1.67
2023-03-26T03:45:18.389Z,1.65
2023-03-26T03:48:07.569Z,1.40
2023-03-26T03:50:42.079Z,1.05
2023-03-26T03:53:22.369Z,2.15
2023-03-26T03:55:53.942Z,1.55
2023-03-26T03:58:27.959Z,1.30
2023-03-26T04:01:03.083Z,1.60
2023-03-26T04:06:30.178Z,1.17
2023-03-26T04:08:58.275Z,1.60
2023-03-26T04:11:26.239Z,1.40
2023-03-26T04:14:16.864Z,2.83
2023-03-26T04:16:58.094Z,1.30
2023-03-26T04:19:27.437Z,1.65
2023-03-26T04:21:55.374Z,1.50
2023-03-26T04:24:24.557Z,1.10
2023-03-26T04:27:14.954Z,1.90
2023-03-26T04:29:45.282Z,1.10
2023-03-26T04:32:26.474Z,1.30
2023-03-26T04:34:55.581Z,2.17
2023-03-26T04:37:32.237Z,1.65
2023-03-26T04:40:23.984Z,1.75
2023-03-26T04:43:14.152Z,1.45
2023-03-26T04:46:02.884Z,1.33
2023-03-26T04:48:34.679Z,1.70
2023-03-26T04:51:02.526Z,1.63
2023-03-26T04:53:30.386Z,2.03
2023-03-26T04:56:34.349Z,1.67
2023-03-26T04:59:30.405Z,1.80
2023-03-26T05:02:00.291Z,2.10
2023-03-26T05:04:34.072Z,1.52
2023-03-26T05:07:03.012Z,1.65
2023-03-26T05:09:44.986Z,1.10
2023-03-26T05:12:17.403Z,2.08
2023-03-26T05:14:52.867Z,1.75
2023-03-26T05:17:41.286Z,1.90
2023-03-26T05:20:21.331Z,1.33
2023-03-26T05:22:51.218Z,1.30
2023-03-26T05:25:28.883Z,1.80
2023-03-26T05:27:57.600Z,1.90
2023-03-26T05:30:30.804Z,1.85
2023-03-26T05:33:04.282Z,1.67
2023-03-26T05:35:43.255Z,1.80
2023-03-26T05:38:11.060Z,1.40
2023-03-26T05:40:39.305Z,1.23
2023-03-26T05:43:08.504Z,1.58
2023-03-26T05:45:48.783Z,1.73
2023-03-26T05:48:22.711Z,1.30
2023-03-26T05:50:55.497Z,1.45
2023-03-26T05:53:25.227Z,1.25
2023-03-26T05:56:11.800Z,1.35
2023-03-26T05:58:58.228Z,1.75
2023-03-26T06:01:34.610Z,1.25
2023-03-26T06:04:25.559Z,1.70
2023-03-26T06:07:13.561Z,1.92
2023-03-26T06:09:45.375Z,2.20
2023-03-26T06:12:13.606Z,1.50
2023-03-26T06:14:43.093Z,1.30
2023-03-26T06:17:19.332Z,1.95
2023-03-26T06:20:09.280Z,2.17
2023-03-26T06:22:44.513Z,2.10
2023-03-26T06:25:21.491Z,1.50
2023-03-26T06:28:21.379Z,1.58
2023-03-26T06:31:09.431Z,1.90
2023-03-26T06:33:41.350Z,2.40
2023-03-26T06:36:10.761Z,2.67
2023-03-26T06:38:40.306Z,2.28
2023-03-26T06:41:09.536Z,2.47
2023-03-26T06:44:15.593Z,1.60
2023-03-26T06:47:01.835Z,2.15
2023-03-26T06:50:01.612Z,1.92
2023-03-26T06:52:54.766Z,1.80
2023-03-26T06:55:44.169Z,2.15
2023-03-26T06:58:31.237Z,2.35
2023-03-26T07:01:34.088Z,1.67
2023-03-26T07:04:20.389Z,1.85
2023-03-26T07:07:06.764Z,2.05
2023-03-26T07:09:53.063Z,2.00
2023-03-26T07:12:51.354Z,0.60
2023-03-26T07:15:45.582Z,1.80
2023-03-26T07:18:36.267Z,1.63
2023-03-26T07:21:06.686Z,1.50
2023-03-26T07:23:35.013Z,1.83
2023-03-26T07:26:31.742Z,1.77
2023-03-26T07:29:34.004Z,2.60
2023-03-26T07:32:26.241Z,1.77
2023-03-26T07:35:21.441Z,2.70
2023-03-26T07:38:23.824Z,1.63
2023-03-26T07:41:13.509Z,1.73
2023-03-26T07:44:35.712Z,1.88
2023-03-26T07:47:28.523Z,2.60
2023-03-26T07:50:18.770Z,2.58
2023-03-26T07:53:07.325Z,2.15
2023-03-26T07:55:58.994Z,1.63
2023-03-26T07:58:59.416Z,1.73
2023-03-26T08:02:00.353Z,1.33
2023-03-26T08:05:00.729Z,1.45
2023-03-26T08:08:14.438Z,2.22
2023-03-26T08:11:07.939Z,7.18
2023-03-26T08:13:59.240Z,4.28
2023-03-26T08:16:32.879Z,4.25
2023-03-26T08:19:10.856Z,3.33
2023-03-26T08:21:42.941Z,3.30
2023-03-26T08:24:19.991Z,3.05
2023-03-26T08:26:57.364Z,3.50
2023-03-26T08:29:41.361Z,3.20
2023-03-26T08:32:17.518Z,4.05
2023-03-26T08:34:50.237Z,3.13
2023-03-26T08:37:18.126Z,4.00
2023-03-26T08:39:46.508Z,3.42
2023-03-26T08:42:49.678Z,3.90
2023-03-26T08:45:43.015Z,4.05
2023-03-26T08:48:55.648Z,4.53
2023-03-26T08:52:03.962Z,3.72
2023-03-26T08:55:08.538Z,3.70
2023-03-26T08:58:00.416Z,3.75
2023-03-26T09:00:57.440Z,4.47
2023-03-26T09:03:48.722Z,3.67
2023-03-26T09:06:35.381Z,1.23
2023-03-26T09:10:02.958Z,3.67
2023-03-26T09:12:55.839Z,3.88
2023-03-26T09:15:44.267Z,6.10
2023-03-26T09:18:51.636Z,5.22
2023-03-26T09:21:47.417Z,5.20
2023-03-26T09:25:00.203Z,4.70
2023-03-26T09:27:40.782Z,4.63
2023-03-26T09:30:29.587Z,3.58
2023-03-26T09:33:34.885Z,3.72
2023-03-26T09:36:37.439Z,7.18
2023-03-26T09:39:11.310Z,6.10
2023-03-26T09:41:43.691Z,3.72
2023-03-26T09:44:51.792Z,1.33
2023-03-26T09:47:44.181Z,3.08
2023-03-26T09:50:41.300Z,3.78
2023-03-26T09:53:22.191Z,1.95
2023-03-26T09:56:04.276Z,1.52
2023-03-26T09:58:52.939Z,3.13
2023-03-26T10:01:33.292Z,3.17
2023-03-26T10:04:26.782Z,4.25
2023-03-26T10:07:02.748Z,2.75
2023-03-26T10:09:40.878Z,1.75
2023-03-26T10:12:20.811Z,0.93
2023-03-26T10:15:00.701Z,0.90
2023-03-26T10:17:44.172Z,1.77
2023-03-26T10:20:33.453Z,1.35
2023-03-26T10:23:15.847Z,1.02
2023-03-26T10:25:56.264Z,1.00
2023-03-26T10:28:42.311Z,1.00
2023-03-26T10:31:26.640Z,1.15
2023-03-26T10:34:06.763Z,1.10
2023-03-26T10:36:36.876Z,1.05
2023-03-26T10:39:37.368Z,0.80
2023-03-26T10:42:24.608Z,0.93
2023-03-26T10:45:11.392Z,3.40
2023-03-26T10:47:53.710Z,0.75
2023-03-26T10:50:37.871Z,0.73
2023-03-26T10:53:11.163Z,0.80
2023-03-26T10:55:40.972Z,1.05
2023-03-26T10:58:17.871Z,0.70
2023-03-26T11:00:51.800Z,0.90
2023-03-26T11:03:41.551Z,0.73
2023-03-26T11:06:20.929Z,0.70
2023-03-26T11:08:54.862Z,0.88
2023-03-26T11:11:29.887Z,1.02
2023-03-26T11:14:04.757Z,0.80
2023-03-26T11:16:45.754Z,1.00
2023-03-26T11:19:21.695Z,1.05
2023-03-26T11:21:58.539Z,0.85
2023-03-26T11:25:05.142Z,0.60
2023-03-26T11:27:47.467Z,0.90
2023-03-26T11:30:28.667Z,0.75
2023-03-26T11:33:00.508Z,0.70
2023-03-26T11:35:39.511Z,1.40
2023-03-26T11:38:19.517Z,0.80
2023-03-26T11:40:51.032Z,1.27
2023-03-26T11:43:38.908Z,1.17
2023-03-26T11:46:12.029Z,1.10
2023-03-26T11:48:44.215Z,1.10
2023-03-26T11:51:16.740Z,1.08
2023-03-26T11:53:46.769Z,0.90
2023-03-26T11:56:28.335Z,0.85
2023-03-26T11:59:01.927Z,0.98
2023-03-26T12:04:14.469Z,0.90
2023-03-26T12:06:53.272Z,1.17
2023-03-26T12:09:22.474Z,1.10
2023-03-26T12:11:55.694Z,1.00
2023-03-26T12:14:27.321Z,1.15
2023-03-26T12:17:03.785Z,1.15
2023-03-26T12:19:40.429Z,0.80
2023-03-26T12:22:29.893Z,1.15
2023-03-26T12:25:16.805Z,1.02
2023-03-26T12:27:46.203Z,1.10
2023-03-26T12:30:21.791Z,0.88
2023-03-26T12:32:53.353Z,1.00
2023-03-26T12:35:27.153Z,1.20
2023-03-26T12:37:56.305Z,0.60
2023-03-26T12:40:31.653Z,0.80
2023-03-26T12:44:56.531Z,0.60
2023-03-26T12:47:56.414Z,0.75
2023-03-26T12:48:40.001Z,0.68
2023-03-26T12:51:23.749Z,0.63
2023-03-26T12:54:04.652Z,0.90
2023-03-26T12:56:44.035Z,0.93
2023-03-26T12:59:35.451Z,0.60
2023-03-26T13:02:21.726Z,0.90
2023-03-26T13:05:06.346Z,0.68
2023-03-26T13:07:52.132Z,0.88
2023-03-26T13:10:42.234Z,0.80
2023-03-26T13:13:29.552Z,0.80
2023-03-26T13:16:02.036Z,0.82
2023-03-26T13:18:45.059Z,1.15
2023-03-26T13:21:20.480Z,1.38
2023-03-26T13:23:57.154Z,0.90
2023-03-26T13:26:41.060Z,0.90
2023-03-26T13:29:18.441Z,0.50
2023-03-26T13:31:54.559Z,0.40
2023-03-26T13:34:31.201Z,0.43
2023-03-26T13:37:06.925Z,0.32
2023-03-26T13:39:46.932Z,0.40
2023-03-26T13:42:33.575Z,0.60
2023-03-26T13:45:15.532Z,0.60
2023-03-26T13:47:48.481Z,0.80
2023-03-26T13:50:23.318Z,0.57
2023-03-26T13:52:55.877Z,0.60
2023-03-26T13:55:29.367Z,0.60
2023-03-26T13:58:04.898Z,0.87
2023-03-26T14:00:54.454Z,1.00
2023-03-26T14:03:30.995Z,0.80
2023-03-26T14:06:04.906Z,1.08
2023-03-26T14:08:38.449Z,0.80
2023-03-26T14:11:11.070Z,0.90
2023-03-26T14:13:47.299Z,0.88
2023-03-26T14:16:19.639Z,1.02
2023-03-26T14:18:53.523Z,1.02
2023-03-26T14:21:45.008Z,0.63
2023-03-26T14:24:32.313Z,0.95
2023-03-26T14:27:17.820Z,0.52
2023-03-26T14:29:58.878Z,0.70
2023-03-26T14:32:41.836Z,0.60
2023-03-26T14:35:26.032Z,0.80
2023-03-26T14:38:28.564Z,0.77
2023-03-26T14:41:10.148Z,1.05
2023-03-26T14:44:00.521Z,1.02
2023-03-26T14:46:40.001Z,0.90
2023-03-26T14:49:30.765Z,1.00
2023-03-26T14:52:03.058Z,1.15
2023-03-26T14:54:34.442Z,1.20
2023-03-26T14:57:38.288Z,1.05
2023-03-26T15:01:05.545Z,0.83
2023-03-26T15:04:23.096Z,1.10
2023-03-26T15:07:24.396Z,1.10
2023-03-26T15:10:22.517Z,1.15
2023-03-26T15:13:06.247Z,0.70
2023-03-26T15:16:07.609Z,0.70
2023-03-26T15:19:21.213Z,0.85
2023-03-26T15:22:24.542Z,0.50
2023-03-26T15:25:27.577Z,0.77
2023-03-26T15:28:19.166Z,0.80
2023-03-26T15:31:14.097Z,0.70
2023-03-26T15:34:12.074Z,0.85
2023-03-26T15:37:01.592Z,0.60
2023-03-26T15:39:59.245Z,0.40
2023-03-26T15:42:38.212Z,0.40
2023-03-26T15:45:27.637Z,0.68
2023-03-26T15:48:15.797Z,0.40
2023-03-26T15:50:55.757Z,0.30
2023-03-26T15:53:35.495Z,0.40
2023-03-26T15:56:17.697Z,0.57
2023-03-26T15:58:52.028Z,0.40
2023-03-26T16:01:33.990Z,0.75
2023-03-26T16:04:19.041Z,0.52
2023-03-26T16:06:58.450Z,0.40
2023-03-26T16:09:42.089Z,0.40
2023-03-26T16:12:35.785Z,1.13
2023-03-26T16:15:32.201Z,0.45
2023-03-26T16:18:33.041Z,0.68
2023-03-26T16:21:39.557Z,6.07
2023-03-26T16:24:20.532Z,0.40
2023-03-26T16:27:08.040Z,0.50
2023-03-26T16:30:09.391Z,0.50
2023-03-26T16:32:42.334Z,0.40
2023-03-26T16:35:56.912Z,0.40
2023-03-26T16:38:27.290Z,8.30
2023-03-26T16:41:03.933Z,0.40
2023-03-26T16:43:44.979Z,0.55
2023-03-26T16:46:27.244Z,0.50
2023-03-26T16:49:01.588Z,0.47
2023-03-26T16:51:47.376Z,0.45
2023-03-26T16:54:23.238Z,0.45
2023-03-26T16:56:58.369Z,0.55
2023-03-26T17:00:05.717Z,0.40
2023-03-26T17:02:49.716Z,0.68
2023-03-26T17:05:21.129Z,0.40
2023-03-26T17:07:59.544Z,0.52
2023-03-26T17:10:34.732Z,0.50
2023-03-26T17:13:07.857Z,0.50
2023-03-26T17:15:45.304Z,0.70
2023-03-26T17:18:36.683Z,0.60
2023-03-26T17:21:13.390Z,0.65
2023-03-26T17:24:04.842Z,0.55
2023-03-26T17:26:46.483Z,0.75
2023-03-26T17:29:27.160Z,0.63
2023-03-26T17:32:01.522Z,0.70
2023-03-26T17:34:55.814Z,0.68
2023-03-26T17:37:43.339Z,0.70
2023-03-26T17:40:51.581Z,0.30
2023-03-26T17:43:50.215Z,0.70
2023-03-26T17:46:34.000Z,0.70
2023-03-26T17:49:08.136Z,0.60
2023-03-26T17:51:47.467Z,1.00
2023-03-26T17:54:21.672Z,0.80
2023-03-26T17:56:51.249Z,0.80
2023-03-26T17:59:23.471Z,0.70
2023-03-26T18:01:55.792Z,0.68
2023-03-26T18:04:30.779Z,1.20
2023-03-26T18:07:18.058Z,0.80
2023-03-26T18:10:06.592Z,0.70
2023-03-26T18:12:57.016Z,0.68
2023-03-26T18:15:46.788Z,0.50
2023-03-26T18:18:19.813Z,0.50
2023-03-26T18:20:49.337Z,0.95
2023-03-26T18:23:26.303Z,0.60
2023-03-26T18:25:58.680Z,0.80
2023-03-26T18:28:32.508Z,0.70
2023-03-26T18:31:09.966Z,0.85
2023-03-26T18:33:49.038Z,0.80
2023-03-26T18:36:18.537Z,0.70
2023-03-26T18:38:48.863Z,0.70
2023-03-26T18:41:24.686Z,1.00
2023-03-26T18:43:52.448Z,0.73
2023-03-26T18:46:20.810Z,0.82
2023-03-26T18:48:48.642Z,0.90
2023-03-26T18:51:22.833Z,0.68
2023-03-26T18:56:31.330Z,0.80
2023-03-26T18:59:05.585Z,0.90
2023-03-26T19:01:36.558Z,0.82
2023-03-26T19:04:07.965Z,0.60
2023-03-26T19:06:41.038Z,0.60
2023-03-26T19:09:28.172Z,0.60
2023-03-26T19:12:05.297Z,0.90
2023-03-26T19:14:36.619Z,1.00
2023-03-26T19:17:07.363Z,0.75
2023-03-26T19:19:38.186Z,0.50
2023-03-26T19:22:06.991Z,0.60
2023-03-26T19:24:39.315Z,0.70
2023-03-26T19:27:07.354Z,0.60
2023-03-26T19:29:36.880Z,0.40
2023-03-26T19:32:06.777Z,0.60
2023-03-26T19:34:39.327Z,0.50
2023-03-26T19:37:19.397Z,0.55
2023-03-26T19:39:51.116Z,0.70
2023-03-26T19:42:23.313Z,0.47
2023-03-26T19:44:52.090Z,0.73
2023-03-26T19:47:26.783Z,0.40
2023-03-26T19:50:01.834Z,0.43
2023-03-26T19:52:34.763Z,0.45
2023-03-26T19:55:16.593Z,0.40
2023-03-26T19:57:45.149Z,1.17
2023-03-26T20:00:14.693Z,0.60
2023-03-26T20:02:45.850Z,0.52
2023-03-26T20:05:19.145Z,0.55
2023-03-26T20:07:47.446Z,0.52
2023-03-26T20:10:17.219Z,0.52
2023-03-26T20:12:45.471Z,0.63
2023-03-26T20:15:19.620Z,0.60
2023-03-26T20:17:50.075Z,0.50
2023-03-26T20:20:18.326Z,0.40
2023-03-26T20:22:47.152Z,0.40
2023-03-26T20:25:20.456Z,0.50
2023-03-26T20:27:48.835Z,0.45
2023-03-26T20:30:22.289Z,0.50
2023-03-26T20:35:40.912Z,0.30
2023-03-26T20:38:09.641Z,0.30
2023-03-26T20:40:39.078Z,0.35
2023-03-26T20:43:10.781Z,0.50
2023-03-26T20:45:38.717Z,0.68
2023-03-26T20:48:07.085Z,0.50
2023-03-26T20:50:35.966Z,0.35
2023-03-26T20:53:06.404Z,0.50
2023-03-26T20:55:35.554Z,0.40
2023-03-26T20:58:04.686Z,1.02
2023-03-26T21:00:32.469Z,0.60
2023-03-26T21:03:00.222Z,0.55
2023-03-26T21:05:30.068Z,0.73
2023-03-26T21:07:59.599Z,0.50
2023-03-26T21:10:29.671Z,0.38
2023-03-26T21:13:00.696Z,0.60
2023-03-26T21:15:30.515Z,0.75
2023-03-26T21:17:59.018Z,0.30
2023-03-26T21:20:28.880Z,0.52
2023-03-26T21:23:04.032Z,0.68
2023-03-26T21:25:40.169Z,0.70
2023-03-26T21:28:24.054Z,0.88
2023-03-26T21:30:56.899Z,0.40
2023-03-26T21:33:25.327Z,0.82
2023-03-26T21:35:53.716Z,0.47
2023-03-26T21:38:22.460Z,0.73
2023-03-26T21:40:58.329Z,0.52
2023-03-26T21:43:26.959Z,0.60
2023-03-26T21:45:57.387Z,0.82
2023-03-26T21:48:25.889Z,0.73
2023-03-26T21:50:54.362Z,0.50
2023-03-26T21:53:24.178Z,1.23
2023-03-26T21:56:01.615Z,0.85
2023-03-26T21:58:47.072Z,0.90
2023-03-26T22:01:26.701Z,0.93
2023-03-26T22:04:03.363Z,0.90
2023-03-26T22:06:37.196Z,1.25
2023-03-26T22:09:05.767Z,0.98
2023-03-26T22:11:33.559Z,0.63
2023-03-26T22:14:01.567Z,1.00
2023-03-26T22:16:30.758Z,0.90
2023-03-26T22:18:58.540Z,1.10
2023-03-26T22:21:26.414Z,1.20
2023-03-26T22:23:54.269Z,1.10
2023-03-26T22:26:24.134Z,1.33
2023-03-26T22:28:53.127Z,1.05
2023-03-26T22:31:21.160Z,1.02
2023-03-26T22:33:50.239Z,1.10
2023-03-26T22:36:22.762Z,1.40
2023-03-26T22:38:54.117Z,1.30
2023-03-26T22:41:22.436Z,1.58
2023-03-26T22:43:52.020Z,1.23
2023-03-26T22:46:20.315Z,1.30
2023-03-26T22:48:49.317Z,0.90
2023-03-26T22:51:19.183Z,0.70
2023-03-26T22:53:46.984Z,1.33
2023-03-26T22:56:15.456Z,1.70
2023-03-26T22:58:43.162Z,1.90
2023-03-26T23:01:17.757Z,2.55
2023-03-26T23:03:45.706Z,1.33
2023-03-26T23:06:14.234Z,1.63
2023-03-26T23:08:43.594Z,1.88
2023-03-26T23:11:12.613Z,0.95
2023-03-26T23:13:40.876Z,1.17
2023-03-26T23:16:10.064Z,1.23
2023-03-26T23:18:38.800Z,1.35
2023-03-26T23:21:11.793Z,1.30
2023-03-26T23:23:41.284Z,1.40
2023-03-26T23:26:10.706Z,1.33
2023-03-26T23:28:39.151Z,1.83
2023-03-26T23:31:10.026Z,2.35
2023-03-26T23:33:45.519Z,1.67
2023-03-26T23:36:14.952Z,2.47
2023-03-26T23:38:44.091Z,1.42
2023-03-26T23:41:14.960Z,1.90
2023-03-26T23:43:54.683Z,1.85
2023-03-26T23:46:25.146Z,1.35
2023-03-26T23:48:53.382Z,1.40
2023-03-26T23:51:22.528Z,1.55
2023-03-26T23:53:50.503Z,1.27
2023-03-26T23:56:20.138Z,1.55
2023-03-26T23:58:48.842Z,1.88
